| time (UTC) | temp F | wind direction | speed knots | gust knots | rain 1hr in | rain 24hr in | rain mn in | humidity % | barometer mb |
| 20260510142444 | 69 | 282 | 0.9 | 1.7 | 0.00 | 0.01 | 0.01 | 99 | 1017.5 |
| 20260510141941 | 69 | 280 | 1.7 | 1.7 | 0.00 | 0.01 | 0.01 | 99 | 1017.6 |
| 20260510141437 | 69 | 267 | 0.9 | 0.9 | 0.00 | 0.01 | 0.01 | 99 | 1017.3 |
| 20260510140935 | 68 | 199 | 0.9 | 0.9 | 0.00 | 0.01 | 0.01 | 99 | 1017.4 |
| 20260510140432 | 69 | 239 | 0.9 | 0.9 | 0.00 | 0.01 | 0.01 | 99 | 1017.7 |
| 20260510135930 | 69 | 261 | 0.0 | 0.9 | 0.00 | 0.01 | 0.01 | 99 | 1017.4 |
| 20260510135426 | 68 | 310 | 1.7 | 2.6 | 0.00 | 0.01 | 0.01 | 99 | 1017.4 |
| 20260510134924 | 68 | 259 | 0.9 | 1.7 | 0.00 | 0.01 | 0.01 | 99 | 1017.4 |
| 20260510134421 | 68 | 257 | 0.9 | 1.7 | 0.00 | 0.01 | 0.01 | 99 | 1017.3 |
| 20260510133917 | 69 | 269 | 0.9 | 1.7 | 0.00 | 0.01 | 0.01 | 99 | 1017.2 |
| 20260510133413 | 68 | 279 | 0.9 | 1.7 | 0.00 | 0.01 | 0.01 | 99 | 1017.2 |
| 20260510132908 | 68 | 359 | 0.9 | 0.9 | 0.00 | 0.01 | 0.01 | 99 | 1016.9 |
| 20260510132406 | 68 | 236 | 0.9 | 1.7 | 0.00 | 0.01 | 0.01 | 99 | 1016.8 |
| 20260510131903 | 68 | 35 | 0.9 | 1.7 | 0.00 | 0.01 | 0.01 | 99 | 1016.8 |
| 20260510131401 | 68 | 252 | 0.0 | 0.0 | 0.00 | 0.01 | 0.01 | 99 | 1016.8 |
| 20260510130857 | 68 | 257 | 0.0 | 0.0 | 0.00 | 0.01 | 0.01 | 99 | 1016.8 |
| 20260510130354 | 67 | 303 | 0.0 | 0.0 | 0.00 | 0.01 | 0.01 | 99 | 1016.9 |
| 20260510125851 | 68 | 248 | 0.0 | 0.9 | 0.00 | 0.01 | 0.01 | 99 | 1016.9 |
| 20260510125347 | 67 | 288 | 0.0 | 0.9 | 0.00 | 0.01 | 0.01 | 99 | 1016.8 |
| 20260510124844 | 67 | 303 | 0.9 | 0.9 | 0.00 | 0.01 | 0.01 | 99 | 1016.8 |
| 20260510124340 | 67 | 285 | 1.7 | 1.7 | 0.00 | 0.01 | 0.01 | 99 | 1016.6 |
| 20260510123836 | 67 | 300 | 0.9 | 0.9 | 0.00 | 0.01 | 0.01 | 99 | 1016.5 |
| 20260510123332 | 67 | 353 | 0.9 | 0.9 | 0.00 | 0.01 | 0.01 | 99 | 1016.2 |
| 20260510122829 | 67 | 22 | 1.7 | 1.7 | 0.00 | 0.01 | 0.01 | 99 | 1015.9 |
| 20260510122324 | 67 | 288 | 0.9 | 0.9 | 0.00 | 0.01 | 0.01 | 99 | 1016.0 |
| 20260510121821 | 67 | 200 | 0.9 | 0.9 | 0.00 | 0.01 | 0.01 | 99 | 1015.9 |
| 20260510121319 | 67 | 245 | 0.9 | 0.9 | 0.00 | 0.01 | 0.01 | 99 | 1015.7 |
| 20260510120816 | 66 | 317 | 0.9 | 0.9 | 0.00 | 0.01 | 0.01 | 99 | 1015.8 |
| 20260510120312 | 66 | 260 | 0.9 | 0.9 | 0.00 | 0.01 | 0.01 | 99 | 1015.8 |
| 20260510115808 | 66 | 310 | 0.9 | 0.9 | 0.00 | 0.01 | 0.01 | 99 | 1015.7 |
| 20260510115307 | 66 | 270 | 0.0 | 0.9 | 0.00 | 0.01 | 0.01 | 99 | 1015.5 |
| 20260510114801 | 66 | 260 | 0.9 | 0.9 | 0.00 | 0.01 | 0.01 | 99 | 1015.4 |
| 20260510114259 | 66 | 74 | 1.7 | 1.7 | 0.00 | 0.01 | 0.01 | 99 | 1015.2 |
| 20260510113753 | 66 | 265 | 0.0 | 0.9 | 0.00 | 0.01 | 0.01 | 99 | 1015.1 |
| 20260510113251 | 66 | 267 | 0.0 | 0.9 | 0.00 | 0.01 | 0.01 | 99 | 1015.0 |
| 20260510112747 | 66 | 297 | 0.0 | 0.9 | 0.00 | 0.01 | 0.01 | 99 | 1014.8 |
| 20260510112244 | 66 | 270 | 0.0 | 0.0 | 0.00 | 0.01 | 0.01 | 99 | 1014.7 |
| 20260510111740 | 66 | 344 | 0.9 | 1.7 | 0.00 | 0.01 | 0.01 | 99 | 1014.7 |
| 20260510111237 | 66 | 263 | 0.0 | 0.0 | 0.00 | 0.01 | 0.01 | 99 | 1014.6 |
| 20260510110736 | 66 | 18 | 0.9 | 0.9 | 0.00 | 0.01 | 0.01 | 99 | 1014.3 |
| 20260510110235 | 66 | 278 | 0.0 | 0.0 | 0.00 | 0.01 | 0.01 | 99 | 1014.4 |
| 20260510105734 | 66 | 275 | 0.0 | 0.0 | 0.00 | 0.01 | 0.01 | 99 | 1014.3 |
| 20260510105229 | 66 | 276 | 0.0 | 0.9 | 0.00 | 0.01 | 0.01 | 99 | 1014.4 |
| 20260510104726 | 66 | 241 | 0.9 | 1.7 | 0.00 | 0.01 | 0.01 | 99 | 1014.1 |
| 20260510104224 | 66 | 278 | 0.0 | 0.0 | 0.00 | 0.01 | 0.01 | 99 | 1014.1 |
| 20260510103720 | 66 | 3 | 0.9 | 1.7 | 0.00 | 0.01 | 0.01 | 99 | 1014.1 |
| 20260510103217 | 66 | 266 | 0.0 | 0.9 | 0.00 | 0.01 | 0.01 | 99 | 1014.1 |
| 20260510102716 | 67 | 280 | 0.0 | 0.0 | 0.00 | 0.01 | 0.01 | 99 | 1013.9 |
| 20260510102212 | 67 | 262 | 0.0 | 0.0 | 0.00 | 0.01 | 0.01 | 99 | 1014.0 |
| 20260510101710 | 66 | 264 | 0.0 | 0.0 | 0.00 | 0.01 | 0.01 | 99 | 1013.8 |
| 20260510101209 | 67 | 284 | 0.0 | 0.9 | 0.00 | 0.01 | 0.01 | 99 | 1013.7 |
| 20260510100704 | 67 | 258 | 0.0 | 0.0 | 0.00 | 0.01 | 0.01 | 99 | 1013.9 |
| 20260510100202 | 67 | 322 | 0.9 | 0.9 | 0.00 | 0.01 | 0.01 | 99 | 1013.8 |
| 20260510095657 | 67 | 271 | 0.0 | 0.0 | 0.00 | 0.01 | 0.01 | 99 | 1013.6 |
| 20260510095153 | 67 | 275 | 0.0 | 0.9 | 0.00 | 0.01 | 0.01 | 99 | 1013.6 |
| 20260510094651 | 67 | 277 | 0.0 | 0.0 | 0.00 | 0.01 | 0.01 | 99 | 1013.6 |
| 20260510094147 | 67 | 270 | 0.0 | 0.0 | 0.00 | 0.01 | 0.01 | 99 | 1013.6 |
| 20260510093643 | 67 | 273 | 0.0 | 0.0 | 0.00 | 0.01 | 0.01 | 99 | 1013.6 |
| 20260510093141 | 67 | 258 | 0.0 | 0.0 | 0.00 | 0.01 | 0.01 | 99 | 1013.6 |
| 20260510092637 | 67 | 274 | 0.0 | 0.0 | 0.00 | 0.01 | 0.01 | 99 | 1013.7 |
| 20260510092133 | 67 | 271 | 0.0 | 0.0 | 0.00 | 0.01 | 0.01 | 99 | 1013.7 |
| 20260510091629 | 67 | 274 | 0.0 | 0.9 | 0.00 | 0.01 | 0.01 | 99 | 1013.3 |
| 20260510091125 | 67 | 267 | 0.0 | 0.0 | 0.00 | 0.01 | 0.01 | 99 | 1013.7 |
| 20260510090622 | 67 | 284 | 0.0 | 0.9 | 0.00 | 0.01 | 0.01 | 99 | 1013.6 |
| 20260510090119 | 67 | 267 | 0.0 | 0.0 | 0.00 | 0.01 | 0.01 | 99 | 1013.4 |
| 20260510085613 | 67 | 267 | 0.0 | 0.0 | 0.00 | 0.01 | 0.01 | 99 | 1013.5 |
| 20260510085109 | 67 | 268 | 0.0 | 0.0 | 0.00 | 0.01 | 0.01 | 99 | 1013.6 |
| 20260510084606 | 67 | 264 | 0.0 | 0.0 | 0.00 | 0.01 | 0.01 | 99 | 1013.6 |
| 20260510084102 | 67 | 262 | 0.0 | 0.0 | 0.00 | 0.01 | 0.01 | 99 | 1013.6 |
| 20260510083559 | 67 | 275 | 0.0 | 0.0 | 0.00 | 0.01 | 0.01 | 99 | 1013.5 |
| 20260510083055 | 67 | 255 | 0.0 | 0.0 | 0.00 | 0.01 | 0.01 | 99 | 1013.3 |
| 20260510082552 | 67 | 334 | 0.0 | 0.9 | 0.00 | 0.01 | 0.01 | 99 | 1013.3 |
| 20260510082048 | 67 | 274 | 0.0 | 0.0 | 0.00 | 0.01 | 0.01 | 99 | 1013.4 |
| 20260510081543 | 67 | 271 | 0.0 | 0.9 | 0.00 | 0.01 | 0.01 | 99 | 1013.6 |
| 20260510081039 | 67 | 256 | 0.0 | 0.0 | 0.00 | 0.01 | 0.01 | 99 | 1013.2 |
| 20260510080538 | 67 | 244 | 0.0 | 0.9 | 0.00 | 0.01 | 0.01 | 99 | 1013.4 |
| 20260510080035 | 67 | 284 | 0.0 | 0.0 | 0.00 | 0.01 | 0.01 | 99 | 1013.4 |
| 20260510075532 | 67 | 270 | 0.0 | 0.0 | 0.00 | 0.01 | 0.01 | 99 | 1013.4 |
| 20260510075029 | 67 | 291 | 0.9 | 0.9 | 0.00 | 0.01 | 0.01 | 99 | 1013.4 |
| 20260510074527 | 67 | 273 | 0.9 | 0.9 | 0.00 | 0.01 | 0.01 | 99 | 1013.4 |
| 20260510074022 | 67 | 288 | 0.9 | 0.9 | 0.00 | 0.01 | 0.01 | 99 | 1013.5 |
| 20260510073518 | 67 | 238 | 0.0 | 0.0 | 0.00 | 0.01 | 0.01 | 99 | 1013.4 |
| 20260510073015 | 67 | 305 | 0.9 | 0.9 | 0.00 | 0.01 | 0.01 | 99 | 1013.4 |
| 20260510072512 | 67 | 280 | 0.0 | 0.0 | 0.00 | 0.01 | 0.01 | 99 | 1013.3 |
| 20260510072007 | 67 | 288 | 0.0 | 0.0 | 0.00 | 0.01 | 0.01 | 99 | 1013.2 |
| 20260510071504 | 67 | 271 | 0.0 | 0.0 | 0.00 | 0.01 | 0.01 | 99 | 1013.3 |
| 20260510071002 | 67 | 282 | 0.9 | 0.9 | 0.00 | 0.01 | 0.01 | 99 | 1013.1 |
| 20260510070459 | 67 | 254 | 0.0 | 0.0 | 0.00 | 0.01 | 0.01 | 99 | 1013.2 |
| 20260510065954 | 67 | 295 | 0.0 | 0.9 | 0.00 | 0.01 | 0.01 | 99 | 1013.0 |
| 20260510065452 | 67 | 310 | 0.9 | 0.9 | 0.00 | 0.01 | 0.01 | 99 | 1013.3 |
| 20260510064948 | 67 | 350 | 0.0 | 0.9 | 0.00 | 0.01 | 0.01 | 99 | 1013.3 |
| 20260510064445 | 67 | 272 | 0.0 | 0.9 | 0.00 | 0.01 | 0.01 | 99 | 1013.1 |
| 20260510063942 | 67 | 273 | 0.0 | 0.9 | 0.00 | 0.01 | 0.01 | 99 | 1013.1 |
| 20260510063438 | 67 | 283 | 0.9 | 0.9 | 0.00 | 0.01 | 0.01 | 99 | 1013.2 |
| 20260510062936 | 67 | 273 | 0.0 | 0.0 | 0.00 | 0.01 | 0.01 | 99 | 1013.0 |
| 20260510062436 | 68 | 254 | 0.0 | 0.9 | 0.00 | 0.01 | 0.01 | 99 | 1013.3 |
| 20260510061932 | 68 | 278 | 0.0 | 0.0 | 0.07 | 0.01 | 0.01 | 99 | 1013.1 |
| 20260510061429 | 68 | 178 | 0.0 | 0.9 | 0.07 | 0.01 | 0.01 | 99 | 1013.5 |
| 20260510060925 | 68 | 254 | 0.0 | 0.9 | 0.00 | 0.00 | 0.00 | 99 | 1013.4 |
| 20260510060422 | 67 | 252 | 0.0 | 0.9 | 0.00 | 0.00 | 0.00 | 99 | 1013.3 |
| 20260510055918 | 67 | 253 | 0.0 | 0.0 | 0.00 | 0.00 | 0.00 | 99 | 1013.4 |
| 20260510055414 | 67 | 253 | 0.0 | 0.0 | 0.00 | 0.00 | 0.00 | 99 | 1013.5 |
| 20260510054912 | 68 | 250 | 0.0 | 0.0 | 0.00 | 0.00 | 0.00 | 99 | 1013.3 |
| 20260510054408 | 67 | 250 | 0.0 | 0.0 | 0.00 | 0.00 | 0.00 | 99 | 1013.3 |
| 20260510053902 | 68 | 279 | 0.0 | 0.9 | 0.00 | 0.00 | 0.00 | 99 | 1013.6 |
| 20260510053359 | 67 | 250 | 0.0 | 0.0 | 0.00 | 0.00 | 0.00 | 99 | 1013.3 |
| 20260510052855 | 68 | 250 | 0.9 | 0.9 | 0.00 | 0.00 | 0.00 | 99 | 1013.3 |
| 20260510052351 | 68 | 242 | 0.0 | 0.0 | 0.00 | 0.00 | 0.00 | 99 | 1013.4 |
| 20260510051847 | 68 | 257 | 0.0 | 0.0 | 0.00 | 0.00 | 0.00 | 99 | 1013.5 |
| 20260510051344 | 68 | 230 | 0.0 | 0.0 | 0.00 | 0.00 | 0.00 | 99 | 1013.5 |
| 20260510050841 | 68 | 277 | 0.9 | 0.9 | 0.00 | 0.00 | 0.00 | 99 | 1013.5 |
| 20260510050337 | 68 | 261 | 0.0 | 0.0 | 0.00 | 0.00 | 0.00 | 99 | 1013.7 |
| 20260510045835 | 68 | 261 | 0.0 | 0.9 | 0.00 | 2.23 | 2.23 | 99 | 1013.5 |
| 20260510045331 | 68 | 248 | 0.9 | 0.9 | 0.00 | 2.23 | 2.23 | 99 | 1013.4 |
| 20260510044829 | 67 | 246 | 0.9 | 0.9 | 0.00 | 2.23 | 2.23 | 99 | 1013.6 |
| 20260510044325 | 67 | 228 | 0.0 | 0.9 | 0.00 | 2.23 | 2.23 | 99 | 1013.4 |
| 20260510043821 | 67 | 229 | 0.9 | 0.9 | 0.00 | 2.23 | 2.23 | 99 | 1013.4 |
| 20260510043317 | 67 | 215 | 0.0 | 0.0 | 0.00 | 2.23 | 2.23 | 99 | 1013.1 |
| 20260510042816 | 67 | 222 | 0.0 | 0.0 | 0.00 | 2.23 | 2.23 | 99 | 1013.3 |
| 20260510042311 | 68 | 220 | 0.0 | 0.0 | 0.00 | 2.23 | 2.23 | 99 | 1013.1 |
| 20260510041808 | 68 | 223 | 0.0 | 0.9 | 0.00 | 2.23 | 2.23 | 99 | 1012.8 |
| 20260510041305 | 68 | 209 | 0.9 | 0.9 | 0.00 | 2.23 | 2.23 | 99 | 1012.8 |
| 20260510040803 | 68 | 221 | 0.0 | 0.9 | 0.00 | 2.23 | 2.23 | 99 | 1012.7 |
| 20260510040259 | 68 | 295 | 0.0 | 1.7 | 0.00 | 2.23 | 2.23 | 99 | 1012.5 |
| 20260510035754 | 68 | 239 | 0.9 | 0.9 | 0.00 | 2.23 | 2.23 | 99 | 1012.8 |
| 20260510035250 | 68 | 184 | 1.7 | 1.7 | 0.00 | 2.23 | 2.23 | 99 | 1012.6 |
| 20260510034746 | 68 | 307 | 0.9 | 1.7 | 0.00 | 2.23 | 2.23 | 99 | 1012.7 |
| 20260510034245 | 68 | 223 | 1.7 | 1.7 | 0.00 | 2.23 | 2.23 | 99 | 1012.7 |
| 20260510033740 | 68 | 239 | 0.9 | 1.7 | 0.00 | 2.23 | 2.23 | 99 | 1012.8 |
| 20260510033238 | 68 | 308 | 0.9 | 1.7 | 0.00 | 2.23 | 2.23 | 99 | 1012.7 |
| 20260510032734 | 68 | 272 | 0.9 | 0.9 | 0.00 | 2.23 | 2.23 | 99 | 1012.5 |
| 20260510032230 | 68 | 262 | 2.6 | 4.3 | 0.00 | 2.23 | 2.23 | 99 | 1013.0 |
| 20260510031725 | 68 | 255 | 0.9 | 0.9 | 0.00 | 2.23 | 2.23 | 99 | 1012.9 |
| 20260510031222 | 68 | 237 | 1.7 | 1.7 | 0.00 | 2.23 | 2.23 | 99 | 1013.0 |
| 20260510030721 | 68 | 216 | 0.9 | 0.9 | 0.00 | 2.23 | 2.23 | 99 | 1013.0 |
| 20260510030219 | 68 | 221 | 0.9 | 0.9 | 0.00 | 2.23 | 2.23 | 99 | 1013.2 |
| 20260510025716 | 68 | 221 | 0.9 | 0.9 | 0.00 | 2.23 | 2.23 | 99 | 1013.5 |
| 20260510025213 | 68 | 219 | 0.9 | 0.9 | 0.00 | 2.23 | 2.23 | 99 | 1013.7 |
| 20260510024710 | 68 | 183 | 1.7 | 1.7 | 0.00 | 2.23 | 2.23 | 99 | 1013.7 |
| 20260510024207 | 68 | 226 | 0.9 | 0.9 | 0.00 | 2.23 | 2.23 | 99 | 1013.5 |
| 20260510023702 | 67 | 220 | 0.9 | 0.9 | 0.00 | 2.23 | 2.23 | 99 | 1013.7 |
| 20260510023159 | 67 | 219 | 0.9 | 0.9 | 0.00 | 2.23 | 2.23 | 99 | 1013.3 |
| 20260510022655 | 67 | 214 | 0.0 | 0.9 | 0.00 | 2.23 | 2.23 | 99 | 1013.3 |
| 20260510022150 | 67 | 217 | 0.0 | 0.9 | 0.00 | 2.23 | 2.23 | 99 | 1013.4 |
| 20260510021646 | 67 | 219 | 0.0 | 0.0 | 0.00 | 2.23 | 2.23 | 99 | 1013.2 |
| 20260510021143 | 67 | 216 | 0.0 | 0.0 | 0.00 | 2.23 | 2.23 | 99 | 1013.3 |
| 20260510020638 | 67 | 216 | 0.0 | 0.0 | 0.00 | 2.23 | 2.23 | 99 | 1013.4 |
| 20260510020133 | 67 | 216 | 0.0 | 0.0 | 0.00 | 2.23 | 2.23 | 99 | 1013.3 |
| 20260510015629 | 67 | 214 | 0.0 | 0.0 | 0.00 | 2.23 | 2.23 | 99 | 1013.4 |
| 20260510015126 | 67 | 192 | 0.0 | 0.9 | 0.00 | 2.23 | 2.23 | 99 | 1013.7 |
| 20260510014621 | 67 | 217 | 0.0 | 0.0 | 0.00 | 2.23 | 2.23 | 99 | 1013.8 |
| 20260510014119 | 67 | 213 | 0.0 | 0.0 | 0.00 | 2.23 | 2.23 | 99 | 1013.8 |
| 20260510013619 | 67 | 194 | 0.0 | 0.0 | 0.00 | 2.23 | 2.23 | 99 | 1013.9 |
| 20260510013115 | 67 | 219 | 0.0 | 0.0 | 0.00 | 2.23 | 2.23 | 99 | 1014.1 |
| 20260510012614 | 67 | 217 | 0.0 | 0.0 | 0.00 | 2.23 | 2.23 | 99 | 1014.1 |
| 20260510012111 | 67 | 222 | 0.0 | 0.9 | 0.00 | 2.23 | 2.23 | 99 | 1013.9 |
| 20260510011610 | 67 | 216 | 0.0 | 0.0 | 0.00 | 2.23 | 2.23 | 99 | 1013.9 |
| 20260510011106 | 67 | 210 | 0.0 | 0.0 | 0.00 | 2.23 | 2.23 | 99 | 1014.1 |
| 20260510010603 | 67 | 234 | 0.9 | 0.9 | 0.00 | 2.23 | 2.23 | 99 | 1013.7 |
| 20260510010100 | 67 | 217 | 0.0 | 0.0 | 0.00 | 2.23 | 2.23 | 99 | 1013.4 |
| 20260510005555 | 67 | 225 | 0.0 | 0.0 | 0.00 | 2.23 | 2.23 | 99 | 1013.0 |
| 20260510005054 | 67 | 251 | 0.0 | 0.0 | 0.00 | 2.23 | 2.23 | 99 | 1013.1 |
| 20260510004551 | 67 | 246 | 0.0 | 0.9 | 0.00 | 2.23 | 2.23 | 99 | 1013.3 |
| 20260510004049 | 67 | 292 | 0.9 | 0.9 | 0.00 | 2.23 | 2.23 | 99 | 1013.2 |
| 20260510003546 | 67 | 304 | 0.9 | 0.9 | 0.05 | 2.23 | 2.23 | 99 | 1012.9 |
| 20260510003041 | 67 | 283 | 0.0 | 0.0 | 0.05 | 2.23 | 2.23 | 99 | 1012.8 |
| 20260510002536 | 67 | 247 | 0.0 | 0.0 | 0.00 | 2.22 | 2.22 | 99 | 1012.6 |
| 20260510002034 | 67 | 247 | 0.0 | 0.0 | 0.07 | 2.22 | 2.22 | 99 | 1012.5 |
| 20260510001531 | 67 | 271 | 0.0 | 0.0 | 0.07 | 2.22 | 2.22 | 99 | 1012.5 |
| 20260510001029 | 67 | 267 | 0.0 | 0.0 | 0.05 | 2.21 | 2.21 | 99 | 1012.4 |
| 20260510000524 | 67 | 245 | 2.6 | 2.6 | 0.05 | 2.21 | 2.21 | 99 | 1012.4 |
| 20260510000021 | 67 | 228 | 0.9 | 0.9 | 0.07 | 2.20 | 2.20 | 99 | 1011.9 |
| 20260509235518 | 67 | 250 | 0.9 | 0.9 | 0.05 | 2.19 | 2.19 | 99 | 1011.9 |
| 20260509235015 | 67 | 260 | 0.9 | 0.9 | 0.05 | 2.19 | 2.19 | 99 | 1011.8 |
| 20260509234511 | 67 | 255 | 0.9 | 0.9 | 0.07 | 2.18 | 2.18 | 99 | 1011.9 |
| 20260509234009 | 67 | 146 | 1.7 | 2.6 | 0.12 | 2.18 | 2.18 | 99 | 1011.6 |
| 20260509233506 | 67 | 323 | 2.6 | 2.6 | 0.12 | 2.17 | 2.17 | 99 | 1011.6 |
| 20260509233003 | 67 | 259 | 0.0 | 0.9 | 0.07 | 2.16 | 2.16 | 99 | 1011.7 |
| 20260509232500 | 67 | 188 | 0.9 | 0.9 | 0.07 | 2.15 | 2.15 | 99 | 1011.6 |
| 20260509231956 | 67 | 264 | 0.0 | 0.9 | 0.12 | 2.15 | 2.15 | 99 | 1011.8 |
| 20260509231453 | 67 | 242 | 0.9 | 1.7 | 0.12 | 2.14 | 2.14 | 99 | 1011.6 |
| 20260509230951 | 67 | 249 | 0.9 | 0.9 | 0.07 | 2.13 | 2.13 | 99 | 1011.5 |
| 20260509230447 | 67 | 317 | 0.0 | 0.9 | 0.05 | 2.12 | 2.12 | 99 | 1011.6 |
| 20260509225943 | 67 | 278 | 0.9 | 0.9 | 0.07 | 2.11 | 2.11 | 99 | 1012.0 |
| 20260509225440 | 67 | 259 | 0.9 | 0.9 | 0.12 | 2.11 | 2.11 | 99 | 1012.6 |
| 20260509224936 | 67 | 272 | 0.0 | 0.9 | 0.12 | 2.10 | 2.10 | 99 | 1012.7 |
| 20260509224431 | 67 | 226 | 0.0 | 0.0 | 0.07 | 2.09 | 2.09 | 99 | 1012.7 |
| 20260509223929 | 67 | 277 | 0.0 | 0.0 | 0.12 | 2.08 | 2.08 | 99 | 1012.7 |
| 20260509223425 | 67 | 261 | 0.0 | 0.0 | 0.07 | 2.07 | 2.07 | 99 | 1012.8 |
| 20260509222923 | 66 | 242 | 0.0 | 0.9 | 0.12 | 2.07 | 2.07 | 99 | 1012.9 |
| 20260509222418 | 66 | 262 | 0.9 | 0.9 | 0.12 | 2.06 | 2.06 | 99 | 1012.2 |
| 20260509221914 | 67 | 275 | 0.9 | 1.7 | 0.12 | 2.05 | 2.05 | 99 | 1012.1 |
| 20260509221411 | 67 | 277 | 0.9 | 0.9 | 0.12 | 2.04 | 2.04 | 99 | 1012.4 |
| 20260509220907 | 67 | 272 | 0.0 | 0.0 | 0.14 | 2.03 | 2.03 | 99 | 1012.5 |
| 20260509220402 | 66 | 292 | 0.0 | 0.0 | 0.12 | 2.02 | 2.02 | 99 | 1012.7 |
| 20260509215858 | 66 | 231 | 0.9 | 1.7 | 0.12 | 2.01 | 2.01 | 99 | 1012.8 |
| 20260509215355 | 67 | 238 | 0.9 | 0.9 | 0.12 | 2.00 | 2.00 | 99 | 1012.7 |
| 20260509214852 | 67 | 226 | 1.7 | 2.6 | 0.12 | 1.99 | 1.99 | 99 | 1012.3 |
| 20260509214349 | 66 | 227 | 0.9 | 0.9 | 0.12 | 1.98 | 1.98 | 99 | 1012.0 |
| 20260509213846 | 67 | 216 | 0.0 | 0.9 | 0.12 | 1.97 | 1.97 | 99 | 1011.2 |
| 20260509213341 | 67 | 265 | 0.0 | 0.0 | 0.07 | 1.96 | 1.96 | 99 | 1011.7 |
| 20260509212839 | 67 | 258 | 0.0 | 0.0 | 0.05 | 1.95 | 1.95 | 99 | 1011.9 |
| 20260509212337 | 67 | 264 | 0.0 | 0.0 | 0.12 | 1.94 | 1.94 | 99 | 1012.5 |
| 20260509211832 | 67 | 228 | 0.9 | 0.9 | 0.12 | 1.93 | 1.93 | 99 | 1012.5 |
| 20260509211328 | 67 | 37 | 0.9 | 1.7 | 0.07 | 1.92 | 1.92 | 99 | 1012.2 |
| 20260509210825 | 67 | 213 | 0.9 | 0.9 | 0.05 | 1.91 | 1.91 | 99 | 1012.6 |
| 20260509210323 | 67 | 242 | 0.0 | 0.0 | 0.14 | 1.90 | 1.90 | 99 | 1012.9 |
| 20260509205822 | 67 | 249 | 0.0 | 0.0 | 0.12 | 1.89 | 1.89 | 99 | 1013.3 |
| 20260509205317 | 67 | 238 | 0.9 | 0.9 | 0.12 | 1.88 | 1.88 | 99 | 1013.2 |
| 20260509204814 | 67 | 245 | 0.0 | 0.0 | 0.12 | 1.87 | 1.87 | 99 | 1013.1 |
| 20260509204310 | 67 | 269 | 0.0 | 0.0 | 0.12 | 1.86 | 1.86 | 99 | 1012.8 |
| 20260509203806 | 67 | 279 | 0.0 | 0.0 | 0.12 | 1.85 | 1.85 | 99 | 1012.8 |
| 20260509203304 | 66 | 258 | 0.0 | 0.0 | 0.12 | 1.84 | 1.84 | 99 | 1012.7 |
| 20260509202800 | 66 | 257 | 0.9 | 0.9 | 0.12 | 1.83 | 1.83 | 99 | 1012.6 |
| 20260509202256 | 67 | 156 | 0.9 | 0.9 | 0.17 | 1.82 | 1.82 | 99 | 1012.2 |
| 20260509201750 | 67 | 131 | 2.6 | 2.6 | 0.19 | 1.81 | 1.81 | 99 | 1012.4 |
| 20260509201247 | 67 | 248 | 0.0 | 0.9 | 0.14 | 1.79 | 1.79 | 99 | 1012.3 |
| 20260509200743 | 67 | 263 | 0.0 | 0.9 | 0.12 | 1.78 | 1.78 | 99 | 1012.0 |
| 20260509200243 | 67 | 292 | 0.9 | 0.9 | 0.17 | 1.77 | 1.77 | 99 | 1012.2 |
| 20260509195741 | 67 | 142 | 0.9 | 1.7 | 0.19 | 1.76 | 1.76 | 99 | 1012.1 |
| 20260509195236 | 67 | 266 | 0.9 | 0.9 | 0.12 | 1.74 | 1.74 | 99 | 1012.0 |
| 20260509194736 | 67 | 169 | 0.9 | 1.7 | 0.17 | 1.73 | 1.73 | 99 | 1012.1 |
| 20260509194232 | 67 | 286 | 2.6 | 2.6 | 0.19 | 1.72 | 1.72 | 99 | 1012.0 |
| 20260509193729 | 67 | 95 | 0.9 | 0.9 | 0.12 | 1.70 | 1.70 | 99 | 1012.5 |
| 20260509193229 | 67 | 254 | 0.0 | 0.0 | 0.17 | 1.69 | 1.69 | 99 | 1013.3 |
| 20260509192725 | 67 | 184 | 1.7 | 1.7 | 0.12 | 1.67 | 1.67 | 99 | 1013.3 |
| 20260509192220 | 67 | 255 | 0.0 | 0.9 | 0.19 | 1.66 | 1.66 | 99 | 1012.9 |
| 20260509191716 | 67 | 221 | 0.9 | 0.9 | 0.19 | 1.65 | 1.65 | 99 | 1013.1 |
| 20260509191213 | 67 | 244 | 0.9 | 0.9 | 0.19 | 1.63 | 1.63 | 99 | 1012.9 |
| 20260509190709 | 67 | 340 | 0.9 | 0.9 | 0.17 | 1.62 | 1.62 | 99 | 1013.3 |
| 20260509190206 | 67 | 255 | 0.9 | 0.9 | 0.17 | 1.60 | 1.60 | 99 | 1013.6 |
| 20260509185704 | 67 | 254 | 0.0 | 0.0 | 0.12 | 1.58 | 1.58 | 99 | 1013.9 |
| 20260509185159 | 67 | 240 | 1.7 | 2.6 | 0.19 | 1.57 | 1.57 | 99 | 1013.6 |
| 20260509184657 | 67 | 248 | 0.0 | 0.9 | 0.17 | 1.56 | 1.56 | 99 | 1013.6 |
| 20260509184154 | 67 | 145 | 0.9 | 1.7 | 0.12 | 1.54 | 1.54 | 99 | 1013.3 |
| 20260509183650 | 67 | 252 | 0.0 | 0.9 | 0.14 | 1.53 | 1.53 | 99 | 1013.7 |
| 20260509183145 | 67 | 159 | 0.0 | 0.9 | 0.19 | 1.52 | 1.52 | 99 | 1013.5 |
| 20260509182641 | 67 | 188 | 1.7 | 2.6 | 0.12 | 1.50 | 1.50 | 99 | 1013.8 |
| 20260509182139 | 67 | 253 | 0.0 | 0.9 | 0.12 | 1.49 | 1.49 | 99 | 1013.4 |
| 20260509181637 | 67 | 232 | 0.9 | 1.7 | 0.12 | 1.48 | 1.48 | 99 | 1013.4 |
| 20260509181134 | 67 | 279 | 0.0 | 0.9 | 0.12 | 1.46 | 1.46 | 99 | 1013.3 |
| 20260509180631 | 67 | 232 | 0.9 | 1.7 | 0.12 | 1.45 | 1.45 | 99 | 1013.6 |
| 20260509180127 | 67 | 254 | 0.0 | 0.9 | 0.12 | 1.44 | 1.44 | 99 | 1013.3 |
| 20260509175623 | 67 | 282 | 0.9 | 1.7 | 0.12 | 1.43 | 1.43 | 99 | 1012.9 |
| 20260509175120 | 67 | 248 | 0.9 | 0.9 | 0.12 | 1.42 | 1.42 | 99 | 1012.5 |
| 20260509174616 | 67 | 206 | 0.9 | 0.9 | 0.12 | 1.41 | 1.41 | 99 | 1012.9 |
| 20260509174111 | 67 | 209 | 0.0 | 0.9 | 0.14 | 1.40 | 1.40 | 99 | 1012.8 |
| 20260509173607 | 67 | 278 | 0.9 | 0.9 | 0.19 | 1.39 | 1.39 | 99 | 1013.0 |
| 20260509173103 | 67 | 342 | 0.9 | 0.9 | 0.12 | 1.37 | 1.37 | 99 | 1013.0 |
| 20260509172600 | 67 | 226 | 1.7 | 1.7 | 0.12 | 1.36 | 1.36 | 99 | 1013.0 |
| 20260509172056 | 67 | 254 | 0.9 | 0.9 | 0.12 | 1.35 | 1.35 | 99 | 1013.1 |
| 20260509171552 | 67 | 232 | 0.0 | 0.0 | 0.17 | 1.34 | 1.34 | 99 | 1013.1 |
| 20260509171048 | 67 | 198 | 1.7 | 2.6 | 0.12 | 1.32 | 1.32 | 99 | 1013.0 |
| 20260509170544 | 67 | 272 | 0.0 | 0.9 | 0.19 | 1.31 | 1.31 | 99 | 1012.8 |
| 20260509170040 | 67 | 131 | 1.7 | 1.7 | 0.19 | 1.30 | 1.30 | 99 | 1012.8 |
| 20260509165539 | 67 | 274 | 1.7 | 1.7 | 0.19 | 1.28 | 1.28 | 99 | 1013.1 |
| 20260509165035 | 67 | 292 | 0.9 | 1.7 | 0.17 | 1.27 | 1.27 | 99 | 1013.0 |
| 20260509164531 | 67 | 164 | 1.7 | 2.6 | 0.12 | 1.25 | 1.25 | 99 | 1013.5 |
| 20260509164027 | 67 | 293 | 0.0 | 0.9 | 0.19 | 1.24 | 1.24 | 99 | 1013.9 |
| 20260509163525 | 67 | 265 | 0.9 | 0.9 | 0.19 | 1.22 | 1.22 | 99 | 1013.9 |
| 20260509163021 | 67 | 249 | 0.0 | 0.0 | 0.17 | 1.21 | 1.21 | 99 | 1013.8 |
| 20260509162518 | 67 | 244 | 0.0 | 0.0 | 0.17 | 1.19 | 1.19 | 99 | 1013.3 |
| 20260509162014 | 67 | 277 | 0.9 | 1.7 | 0.19 | 1.18 | 1.18 | 99 | 1013.1 |
| 20260509161510 | 67 | 252 | 0.9 | 1.7 | 0.26 | 1.16 | 1.16 | 99 | 1013.3 |
| 20260509161000 | 66 | 215 | 0.9 | 0.9 | 0.17 | 1.14 | 1.14 | 99 | 1013.6 |
| 20260509160456 | 66 | 259 | 1.7 | 4.3 | 0.17 | 1.12 | 1.12 | 99 | 1013.6 |
| 20260509155956 | 66 | 246 | 3.5 | 6.1 | 0.24 | 1.10 | 1.10 | 99 | 1013.7 |
| 20260509155453 | 66 | 301 | 1.7 | 2.6 | 0.24 | 1.08 | 1.08 | 99 | 1013.1 |
| 20260509154949 | 66 | 245 | 0.9 | 0.9 | 0.17 | 1.06 | 1.06 | 99 | 1013.2 |
| 20260509154445 | 66 | 300 | 1.7 | 1.7 | 0.26 | 1.05 | 1.05 | 99 | 1013.4 |
| 20260509153943 | 66 | 180 | 0.9 | 1.7 | 0.31 | 1.03 | 1.03 | 99 | 1013.7 |
| 20260509153439 | 66 | 305 | 0.0 | 0.9 | 0.28 | 1.01 | 1.01 | 99 | 1013.7 |
| 20260509152937 | 66 | 247 | 0.0 | 0.0 | 0.28 | 0.99 | 0.99 | 99 | 1013.6 |
| 20260509152432 | 66 | 216 | 0.9 | 0.9 | 0.24 | 0.96 | 0.96 | 99 | 1013.5 |
| 20260509151929 | 66 | 267 | 0.0 | 0.9 | 0.24 | 0.94 | 0.94 | 99 | 1013.4 |
| 20260509151425 | 66 | 342 | 0.9 | 0.9 | 0.31 | 0.92 | 0.92 | 99 | 1013.5 |
| 20260509150924 | 66 | 266 | 0.9 | 1.7 | 0.31 | 0.90 | 0.90 | 99 | 1012.9 |
| 20260509150421 | 65 | 214 | 0.9 | 0.9 | 0.24 | 0.87 | 0.87 | 99 | 1013.1 |
| 20260509145920 | 65 | 285 | 1.7 | 2.6 | 0.31 | 0.85 | 0.85 | 99 | 1013.1 |
| 20260509145420 | 65 | 54 | 4.3 | 7.0 | 0.31 | 0.82 | 0.82 | 99 | 1013.3 |
| 20260509144915 | 65 | 240 | 0.9 | 1.7 | 0.31 | 0.80 | 0.80 | 99 | 1013.3 |
| 20260509144412 | 65 | 140 | 0.9 | 1.7 | 0.31 | 0.78 | 0.78 | 99 | 1013.4 |
| 20260509143910 | 65 | 249 | 0.9 | 0.9 | 0.28 | 0.75 | 0.75 | 99 | 1013.2 |
| 20260509143407 | 65 | 253 | 0.0 | 0.0 | 0.31 | 0.72 | 0.72 | 99 | 1013.7 |
| 20260509142903 | 65 | 247 | 0.9 | 0.9 | 0.31 | 0.70 | 0.70 | 99 | 1013.5 |